Time;durP1;ratioP1;P1;durP2;ratioP2;P2;SDS_P1;SDS_P2;PMS_P1;PMS_P2;Temp;Humidity;BMP_temperature;BMP_pressure;BME280_temperature;BME280_humidity;BME280_pressure;Samples;Min_cycle;Max_cycle;Signal;HPM_P1;HPM_P2
2023/02/06 00:01:47;;;;;;;30.55;4.40;;;;;;;1.76;100.00;103936.81;5009531;28;20045;-77
2023/02/06 00:04:13;;;;;;;36.78;4.95;;;;;;;1.76;100.00;103931.69;5011300;28;20029;-77
2023/02/06 00:06:39;;;;;;;31.40;5.00;;;;;;;1.75;100.00;103933.41;4992722;28;20034;-78
2023/02/06 00:09:05;;;;;;;39.17;4.28;;;;;;;1.82;100.00;103928.22;5014530;28;20037;-77
2023/02/06 00:11:31;;;;;;;46.25;6.75;;;;;;;1.73;100.00;103929.19;5011616;28;20112;-77
2023/02/06 00:13:57;;;;;;;42.00;6.15;;;;;;;1.68;100.00;103925.84;4992355;28;20121;-78
2023/02/06 00:16:28;;;;;;;37.58;5.82;;;;;;;1.66;100.00;103915.63;5004183;28;20034;-78
2023/02/06 00:18:55;;;;;;;32.13;4.78;;;;;;;1.64;100.00;103921.63;5020874;28;20041;-78
2023/02/06 00:21:24;;;;;;;25.85;4.28;;;;;;;1.61;100.00;103909.72;4994713;28;20037;-77
2023/02/06 00:23:52;;;;;;;29.20;4.18;;;;;;;1.60;100.00;103909.75;5018749;28;20522;-78
2023/02/06 00:26:17;;;;;;;32.38;4.32;;;;;;;1.66;100.00;103904.56;5007918;28;20033;-77
2023/02/06 00:28:44;;;;;;;27.27;4.78;;;;;;;1.61;100.00;103906.34;5006087;28;20084;-78
2023/02/06 00:31:09;;;;;;;36.33;6.30;;;;;;;1.56;100.00;103898.72;5013439;28;20029;-78
2023/02/06 00:33:35;;;;;;;30.45;6.55;;;;;;;1.53;100.00;103906.44;5004142;28;20662;-78
2023/02/06 00:36:02;;;;;;;27.20;4.35;;;;;;;1.50;100.00;103902.19;5011618;28;20040;-77
2023/02/06 00:38:28;;;;;;;33.35;4.78;;;;;;;1.48;100.00;103897.97;5012597;28;20087;-75
2023/02/06 00:40:53;;;;;;;43.13;5.20;;;;;;;1.45;100.00;103898.00;5026578;28;20050;-78
2023/02/06 00:43:19;;;;;;;31.60;4.40;;;;;;;1.43;100.00;103892.94;5012747;28;20045;-77
2023/02/06 00:45:44;;;;;;;42.08;6.10;;;;;;;1.40;100.00;103898.09;5013019;28;20038;-78
2023/02/06 00:48:10;;;;;;;29.35;4.47;;;;;;;1.35;100.00;103897.28;5006595;28;20038;-77
2023/02/06 00:50:36;;;;;;;39.38;5.35;;;;;;;1.33;100.00;103904.16;4999925;28;20040;-77
2023/02/06 00:53:01;;;;;;;27.58;4.22;;;;;;;1.30;100.00;103896.50;5010858;28;20034;-78
2023/02/06 00:55:27;;;;;;;22.92;4.38;;;;;;;1.26;100.00;103895.72;4993806;28;20030;-78
2023/02/06 00:57:53;;;;;;;36.97;4.78;;;;;;;1.23;100.00;103900.03;4994343;28;20041;-78
2023/02/06 01:00:19;;;;;;;25.67;5.22;;;;;;;1.20;100.00;103884.72;4997390;28;20041;-78
2023/02/06 01:02:44;;;;;;;27.52;4.68;;;;;;;1.16;100.00;103894.97;4995674;28;20033;-78
2023/02/06 01:05:10;;;;;;;26.13;4.43;;;;;;;1.10;100.00;103889.94;5003403;28;20041;-78
2023/02/06 01:07:37;;;;;;;35.30;5.80;;;;;;;1.08;100.00;103891.69;4993551;28;20042;-78
2023/02/06 01:10:03;;;;;;;33.58;6.25;;;;;;;1.07;100.00;103894.25;5000553;28;20557;-78
2023/02/06 01:12:29;;;;;;;33.05;6.47;;;;;;;1.04;100.00;103896.84;5005351;28;20030;-77
2023/02/06 01:14:54;;;;;;;51.42;6.32;;;;;;;1.01;100.00;103895.16;4995009;28;20036;-78
2023/02/06 01:17:19;;;;;;;35.53;4.43;;;;;;;0.99;100.00;103899.44;5002983;28;20044;-77
2023/02/06 01:19:45;;;;;;;37.67;6.72;;;;;;;0.93;100.00;103902.91;4987654;28;20043;-77
2023/02/06 01:22:10;;;;;;;38.67;5.18;;;;;;;0.92;100.00;103898.69;4987271;28;20045;-78
2023/02/06 01:24:36;;;;;;;44.42;5.65;;;;;;;0.92;100.00;103906.34;5007381;28;20099;-78
2023/02/06 01:27:02;;;;;;;39.72;5.00;;;;;;;0.87;100.00;103904.72;4993048;28;20045;-77
2023/02/06 01:29:27;;;;;;;29.30;4.85;;;;;;;0.85;100.00;103904.72;4992706;28;20557;-77
2023/02/06 01:31:52;;;;;;;43.03;5.07;;;;;;;0.81;100.00;103908.19;4991333;28;20036;-78
2023/02/06 01:34:18;;;;;;;38.85;4.78;;;;;;;0.80;100.00;103914.16;5011266;28;20032;-78
2023/02/06 01:36:43;;;;;;;46.03;5.93;;;;;;;0.76;100.00;103909.94;5008763;28;20486;-78
2023/02/06 01:39:09;;;;;;;32.38;5.82;;;;;;;0.75;100.00;103921.00;4992583;28;20379;-78
2023/02/06 01:41:35;;;;;;;34.50;4.53;;;;;;;0.74;100.00;103919.31;5005027;28;20056;-78
2023/02/06 01:44:21;;;;;;;48.63;8.95;;;;;;;0.74;100.00;103925.28;4989441;28;20037;-78
2023/02/06 01:46:51;;;;;;;46.22;6.93;;;;;;;0.74;100.00;103915.06;5024157;28;20104;-78
2023/02/06 01:49:40;;;;;;;34.60;4.82;;;;;;;0.71;100.00;103912.53;5026374;28;20033;-79
2023/02/06 01:52:13;;;;;;;30.08;5.50;;;;;;;0.70;100.00;103921.06;4992407;28;20045;-78
2023/02/06 01:54:42;;;;;;;43.13;5.90;;;;;;;0.71;100.00;103916.78;5018347;28;20588;-77
2023/02/06 01:57:10;;;;;;;48.30;6.03;;;;;;;0.70;100.00;103907.44;5006938;28;20091;-78
2023/02/06 01:59:41;;;;;;;50.00;6.32;;;;;;;0.69;100.00;103906.59;4992616;28;20029;-77
2023/02/06 02:02:07;;;;;;;41.22;4.93;;;;;;;0.67;100.00;103897.25;5014440;28;20051;-78
2023/02/06 02:04:33;;;;;;;33.33;5.60;;;;;;;0.66;100.00;103895.53;5009610;28;20092;-77
2023/02/06 02:07:11;;;;;;;41.38;6.10;;;;;;;0.63;100.00;103893.03;5020149;28;20507;-78
2023/02/06 02:09:36;;;;;;;39.15;6.25;;;;;;;0.62;100.00;103899.84;4949987;28;1272932;-78
2023/02/06 02:12:03;;;;;;;34.15;5.70;;;;;;;0.60;100.00;103893.91;4989966;28;20056;-78
2023/02/06 02:14:28;;;;;;;46.53;6.32;;;;;;;0.56;100.00;103893.09;5019007;28;20453;-78
2023/02/06 02:17:09;;;;;;;51.22;7.35;;;;;;;0.54;100.00;103902.47;4990263;28;20026;-78
2023/02/06 02:19:44;;;;;;;36.10;4.60;;;;;;;0.51;100.00;103901.66;4988749;28;20030;-75
2023/02/06 02:22:28;;;;;;;26.00;5.85;;;;;;;0.48;100.00;103894.88;5011592;28;20096;-78
2023/02/06 02:25:13;;;;;;;35.42;5.65;;;;;;;0.45;100.00;103904.28;4994389;28;20035;-77
2023/02/06 02:27:41;;;;;;;44.92;5.68;;;;;;;0.43;100.00;103903.44;5007779;28;20524;-77
2023/02/06 02:30:40;;;;;;;26.38;4.50;;;;;;;0.39;100.00;103900.91;5009574;28;20410;-78
2023/02/06 02:33:15;;;;;;;37.80;5.45;;;;;;;0.36;100.00;103897.56;5021893;28;20030;-77
2023/02/06 02:35:43;;;;;;;35.88;7.25;;;;;;;0.33;100.00;103897.59;5008004;28;20097;-77
2023/02/06 02:38:36;;;;;;;22.80;3.95;;;;;;;0.30;100.00;103895.91;5005768;28;20908;-77
2023/02/06 02:41:38;;;;;;;35.67;7.77;;;;;;;0.29;100.00;103904.41;4992931;28;20065;-78
2023/02/06 02:44:08;;;;;;;45.13;6.43;;;;;;;0.30;100.00;103915.47;4998341;28;20042;-77
2023/02/06 02:46:47;;;;;;;40.47;5.55;;;;;;;0.30;100.00;103908.69;5031271;28;20033;-77
2023/02/06 02:49:17;;;;;;;39.25;5.30;;;;;;;0.29;100.00;103904.41;5010161;28;20041;-77
2023/02/06 02:51:45;;;;;;;48.40;5.47;;;;;;;0.33;100.00;103900.13;5012537;28;20088;-76
2023/02/06 02:54:11;;;;;;;33.15;5.13;;;;;;;0.28;100.00;103896.75;5015758;28;20033;-77
2023/02/06 02:56:37;;;;;;;39.25;4.30;;;;;;;0.23;100.00;103893.41;4999566;28;20498;-77
2023/02/06 02:59:22;;;;;;;46.20;5.38;;;;;;;0.21;100.00;103892.56;5011550;28;20111;-78
2023/02/06 03:01:56;;;;;;;39.05;6.07;;;;;;;0.16;100.00;103893.47;5013509;28;20025;-77
2023/02/06 03:04:27;;;;;;;36.35;5.63;;;;;;;0.15;100.00;103896.00;5010926;28;20038;-77
2023/02/06 03:07:01;;;;;;;36.22;5.95;;;;;;;0.13;100.00;103901.16;5007183;28;20492;-76
2023/02/06 03:09:57;;;;;;;39.58;4.68;;;;;;;0.09;100.00;103889.25;5007135;28;20551;-78
2023/02/06 03:12:47;;;;;;;32.15;5.05;;;;;;;0.06;100.00;103886.75;4988044;28;20108;-77
2023/02/06 03:15:55;;;;;;;25.70;5.68;;;;;;;0.04;100.00;103892.69;4994802;28;20061;-76
2023/02/06 03:18:30;;;;;;;33.03;4.82;;;;;;;-0.02;100.00;103899.56;5011895;28;20634;-77
2023/02/06 03:20:58;;;;;;;43.75;5.80;;;;;;;-0.05;100.00;103898.75;5009872;28;20569;-77
2023/02/06 03:23:30;;;;;;;25.67;4.20;;;;;;;-0.12;100.00;103897.91;5007122;28;20058;-77
2023/02/06 03:26:00;;;;;;;35.38;4.60;;;;;;;-0.17;100.00;103892.03;5020447;28;20041;-77
2023/02/06 03:28:31;;;;;;;33.97;6.40;;;;;;;-0.23;100.00;103887.81;5006870;28;20065;-77
2023/02/06 03:31:01;;;;;;;28.35;4.18;;;;;;;-0.27;100.00;103883.56;5009001;28;20471;-78
2023/02/06 03:33:32;;;;;;;24.58;4.63;;;;;;;-0.30;100.00;103881.06;5012055;28;20096;-78
2023/02/06 03:35:58;;;;;;;24.80;4.28;;;;;;;-0.31;100.00;103887.00;5030930;28;20120;-76
2023/02/06 03:38:25;;;;;;;23.65;3.97;;;;;;;-0.33;100.00;103893.81;5014354;28;20690;-77
2023/02/06 03:40:53;;;;;;;23.77;4.18;;;;;;;-0.38;100.00;103897.25;5027555;28;20120;-77
2023/02/06 03:43:23;;;;;;;26.65;4.00;;;;;;;-0.43;100.00;103900.69;5012061;28;20034;-78
2023/02/06 03:45:54;;;;;;;32.78;4.57;;;;;;;-0.44;100.00;103900.69;5026689;28;20040;-77
2023/02/06 03:48:28;;;;;;;36.10;5.47;;;;;;;-0.47;100.00;103900.69;5010128;28;20037;-75
2023/02/06 03:50:56;;;;;;;32.67;4.43;;;;;;;-0.50;100.00;103905.81;5012993;28;20120;-77
2023/02/06 03:53:23;;;;;;;34.70;5.03;;;;;;;-0.53;100.00;103905.81;5009674;28;20056;-77
2023/02/06 03:55:53;;;;;;;33.85;3.78;;;;;;;-0.55;100.00;103902.44;5011176;28;20084;-76
2023/02/06 03:58:18;;;;;;;29.10;4.22;;;;;;;-0.56;100.00;103899.06;5012634;28;20109;-78
2023/02/06 04:00:45;;;;;;;32.85;6.40;;;;;;;-0.59;100.00;103899.06;5009681;28;20036;-78
2023/02/06 04:03:12;;;;;;;33.25;5.47;;;;;;;-0.60;100.00;103884.63;4995323;28;20125;-77
2023/02/06 04:05:38;;;;;;;43.47;6.30;;;;;;;-0.63;100.00;103895.69;5013714;28;20037;-77
2023/02/06 04:08:04;;;;;;;26.50;8.80;;;;;;;-0.65;100.00;103894.84;4998219;28;20068;-77
2023/02/06 04:10:29;;;;;;;27.80;4.10;;;;;;;-0.67;100.00;103899.09;5026842;28;20107;-76
2023/02/06 04:12:55;;;;;;;30.52;4.57;;;;;;;-0.69;100.00;103897.41;4989829;28;22160;-77
2023/02/06 04:15:21;;;;;;;37.50;5.00;;;;;;;-0.71;100.00;103899.13;4992554;28;20033;-77
2023/02/06 04:17:46;;;;;;;31.08;5.00;;;;;;;-0.75;100.00;103888.09;5004467;28;20040;-77
2023/02/06 04:20:12;;;;;;;24.35;4.05;;;;;;;-0.79;100.00;103889.81;5008044;28;20037;-78
2023/02/06 04:22:38;;;;;;;34.97;5.28;;;;;;;-0.79;100.00;103894.06;5000772;28;20038;-77
2023/02/06 04:25:04;;;;;;;22.85;4.22;;;;;;;-0.83;100.00;103893.25;5007453;28;20033;-76
2023/02/06 04:27:29;;;;;;;32.58;5.05;;;;;;;-0.84;100.00;103890.69;5004504;28;20045;-77
2023/02/06 04:29:55;;;;;;;36.55;5.40;;;;;;;-0.86;100.00;103894.94;5005499;28;20041;-77
2023/02/06 04:32:20;;;;;;;31.77;4.15;;;;;;;-0.87;100.00;103909.38;5013750;28;20045;-78
2023/02/06 04:34:46;;;;;;;37.08;4.65;;;;;;;-0.88;100.00;103911.94;5026314;28;20030;-77
2023/02/06 04:37:12;;;;;;;25.92;4.22;;;;;;;-0.89;100.00;103917.88;5006357;28;20064;-78
2023/02/06 04:39:37;;;;;;;24.13;4.43;;;;;;;-0.91;100.00;103911.94;5002370;28;20037;-77
2023/02/06 04:42:03;;;;;;;43.95;4.95;;;;;;;-0.90;100.00;103913.66;5004996;28;20125;-77
2023/02/06 04:44:29;;;;;;;26.83;3.88;;;;;;;-0.90;100.00;103911.09;5024600;28;20037;-76
2023/02/06 04:46:55;;;;;;;28.08;5.15;;;;;;;-0.88;100.00;103917.03;5008215;28;20037;-78
2023/02/06 04:49:21;;;;;;;41.00;5.60;;;;;;;-0.86;100.00;103917.88;4998889;28;20506;-77
2023/02/06 04:51:46;;;;;;;34.78;4.75;;;;;;;-0.82;100.00;103917.84;5005337;28;20509;-77
2023/02/06 04:54:13;;;;;;;35.85;6.25;;;;;;;-0.76;100.00;103916.13;5007620;28;20596;-76
2023/02/06 04:56:39;;;;;;;60.90;6.90;;;;;;;-0.70;100.00;103924.59;5009593;28;21624;-77
2023/02/06 04:59:05;;;;;;;48.90;7.03;;;;;;;-0.65;100.00;103922.03;5013066;28;20042;-77
2023/02/06 05:01:30;;;;;;;54.42;9.68;;;;;;;-0.63;100.00;103925.44;5010983;28;20064;-78
2023/02/06 05:03:56;;;;;;;44.22;6.65;;;;;;;-0.63;100.00;103916.06;4993494;28;20037;-77
2023/02/06 05:06:21;;;;;;;45.78;7.40;;;;;;;-0.65;100.00;103915.22;5003293;28;20478;-77
2023/02/06 05:08:47;;;;;;;43.92;7.15;;;;;;;-0.65;100.00;103924.59;4992949;28;20052;-78
2023/02/06 05:11:12;;;;;;;50.53;9.18;;;;;;;-0.65;100.00;103930.53;4995648;28;20072;-78
2023/02/06 05:13:38;;;;;;;36.67;7.65;;;;;;;-0.65;100.00;103924.59;4987665;28;20045;-77
2023/02/06 05:16:08;;;;;;;47.42;9.35;;;;;;;-0.63;100.00;103930.53;5024567;28;20038;-77
2023/02/06 05:18:34;;;;;;;65.03;9.15;;;;;;;-0.60;100.00;103921.16;4994663;28;20045;-77
2023/02/06 05:20:59;;;;;;;91.40;8.70;;;;;;;-0.57;100.00;103917.75;5012475;28;20029;-77
2023/02/06 05:23:25;;;;;;;72.18;8.45;;;;;;;-0.55;100.00;103916.03;4997321;28;20050;-78
2023/02/06 05:25:51;;;;;;;58.10;7.00;;;;;;;-0.53;100.00;103921.97;5012880;28;20359;-78
2023/02/06 05:28:16;;;;;;;61.95;8.02;;;;;;;-0.51;100.00;103927.94;5025156;28;20041;-78
2023/02/06 05:30:42;;;;;;;69.97;8.43;;;;;;;-0.49;100.00;103933.00;4996260;28;20036;-78
2023/02/06 05:33:07;;;;;;;70.20;8.68;;;;;;;-0.48;100.00;103935.53;4994593;28;20363;-78
2023/02/06 05:35:32;;;;;;;60.80;9.98;;;;;;;-0.44;100.00;103949.13;5010535;28;20533;-78
2023/02/06 05:37:58;;;;;;;74.97;8.63;;;;;;;-0.40;100.00;103935.50;4995685;28;20033;-78
2023/02/06 05:40:23;;;;;;;63.47;8.50;;;;;;;-0.40;100.00;103921.06;5011099;28;20041;-78
2023/02/06 05:42:49;;;;;;;67.60;7.50;;;;;;;-0.37;100.00;103920.19;5011858;28;20037;-76
2023/02/06 05:45:15;;;;;;;60.00;10.55;;;;;;;-0.29;100.00;103915.88;5010875;28;20114;-77
2023/02/06 05:47:40;;;;;;;58.22;13.57;;;;;;;-0.25;100.00;103927.75;5010314;28;20034;-78
2023/02/06 05:50:06;;;;;;;52.10;13.07;;;;;;;-0.15;100.00;103926.03;5008754;28;20091;-77
2023/02/06 05:52:31;;;;;;;60.00;13.57;;;;;;;-0.16;100.00;103931.13;5008361;28;20053;-78
2023/02/06 05:54:57;;;;;;;52.00;10.75;;;;;;;-0.16;100.00;103918.38;5027190;28;20022;-78
2023/02/06 05:57:22;;;;;;;39.88;8.55;;;;;;;-0.15;100.00;103912.41;5008620;28;20030;-77
2023/02/06 05:59:48;;;;;;;36.55;6.93;;;;;;;-0.13;100.00;103909.00;5025506;28;20033;-77
2023/02/06 06:02:13;;;;;;;44.65;8.20;;;;;;;-0.05;100.00;103911.50;4992319;28;20130;-78
2023/02/06 06:04:39;;;;;;;48.78;8.60;;;;;;;0.06;100.00;103912.25;5006356;28;20048;-77
2023/02/06 06:07:08;;;;;;;54.33;10.60;;;;;;;0.09;100.00;103919.88;5010135;28;20045;-79
2023/02/06 06:09:34;;;;;;;54.38;10.00;;;;;;;0.02;100.00;103914.84;5012824;28;20100;-78
2023/02/06 06:12:02;;;;;;;93.20;13.82;;;;;;;0.05;100.00;103914.81;5012726;28;20061;-76
2023/02/06 06:14:31;;;;;;;105.13;18.63;;;;;;;0.05;100.00;103909.72;5012986;28;20025;-79
2023/02/06 06:16:56;;;;;;;89.07;17.73;;;;;;;0.12;100.00;103913.94;4993931;28;20045;-77
2023/02/06 06:19:22;;;;;;;67.07;13.13;;;;;;;0.10;100.00;103910.53;4998073;28;20034;-78
2023/02/06 06:21:47;;;;;;;62.00;11.20;;;;;;;0.06;100.00;103907.16;5012671;28;20040;-78
2023/02/06 06:24:13;;;;;;;64.95;12.98;;;;;;;0.08;100.00;103910.53;4998821;28;20029;-76
2023/02/06 06:26:38;;;;;;;37.65;11.43;;;;;;;0.07;100.00;103915.66;5010425;28;20382;-77
2023/02/06 06:29:04;;;;;;;50.80;11.57;;;;;;;0.06;100.00;103919.91;5009600;28;20041;-77
2023/02/06 06:31:30;;;;;;;38.67;9.32;;;;;;;0.08;100.00;103915.66;5008816;28;20048;-78
2023/02/06 06:33:55;;;;;;;46.88;10.50;;;;;;;0.07;100.00;103916.50;4995979;28;20049;-77
2023/02/06 06:36:21;;;;;;;48.92;10.18;;;;;;;0.13;100.00;103908.81;5012326;28;20641;-78
2023/02/06 06:38:46;;;;;;;34.05;9.52;;;;;;;0.22;100.00;103912.97;5022847;28;20033;-77
2023/02/06 06:41:12;;;;;;;37.03;9.77;;;;;;;0.16;100.00;103911.31;5010265;28;20041;-77
2023/02/06 06:43:38;;;;;;;41.75;9.98;;;;;;;0.19;100.00;103913.88;5007312;28;20033;-75
2023/02/06 06:46:04;;;;;;;34.33;10.00;;;;;;;0.17;100.00;103920.69;5011023;28;20537;-79
2023/02/06 06:48:30;;;;;;;36.95;9.23;;;;;;;0.22;100.00;103923.19;5010774;28;20041;-77
2023/02/06 06:50:55;;;;;;;34.22;9.65;;;;;;;0.26;100.00;103921.47;5008689;28;20037;-77
2023/02/06 06:53:21;;;;;;;40.72;9.35;;;;;;;0.28;100.00;103930.78;5018682;28;20095;-78
2023/02/06 06:55:47;;;;;;;41.83;12.35;;;;;;;0.30;100.00;103923.13;5008965;28;20680;-78
2023/02/06 06:58:12;;;;;;;32.17;9.95;;;;;;;0.25;100.00;103930.00;5008112;28;20025;-78
2023/02/06 07:00:39;;;;;;;27.38;8.23;;;;;;;0.23;100.00;103927.44;5009523;28;20505;-77
2023/02/06 07:03:05;;;;;;;23.58;8.05;;;;;;;0.30;100.00;103921.44;5009475;28;20038;-77
2023/02/06 07:05:31;;;;;;;26.98;7.90;;;;;;;0.28;100.00;103920.56;5009169;28;20079;-78
2023/02/06 07:07:56;;;;;;;28.42;9.00;;;;;;;0.41;100.00;103920.50;5021786;28;20045;-77
2023/02/06 07:10:22;;;;;;;26.13;8.00;;;;;;;0.40;100.00;103909.44;5022905;28;20036;-77
2023/02/06 07:12:48;;;;;;;26.15;9.40;;;;;;;0.38;100.00;103906.88;5019532;28;20053;-77
2023/02/06 07:15:13;;;;;;;36.15;8.75;;;;;;;0.31;100.00;103897.59;4995107;28;20048;-77
2023/02/06 07:17:39;;;;;;;29.92;8.10;;;;;;;0.30;100.00;103907.81;5026970;28;20445;-77
2023/02/06 07:20:05;;;;;;;33.30;10.38;;;;;;;0.37;100.00;103902.63;5008171;28;20045;-75
2023/02/06 07:22:31;;;;;;;30.48;9.05;;;;;;;0.31;100.00;103900.13;5006959;28;20550;-77
2023/02/06 07:24:56;;;;;;;27.67;8.60;;;;;;;0.25;100.00;103889.16;5000488;28;20040;-77
2023/02/06 07:27:22;;;;;;;32.42;8.60;;;;;;;0.27;100.00;103893.38;5005144;28;20042;-76
2023/02/06 07:29:47;;;;;;;32.30;10.77;;;;;;;0.27;100.00;103895.09;4991930;28;20025;-76
2023/02/06 07:32:13;;;;;;;26.67;9.20;;;;;;;0.27;100.00;103889.97;5006973;28;20128;-76
2023/02/06 07:34:39;;;;;;;29.42;8.93;;;;;;;0.30;100.00;103905.25;5009256;28;20033;-76
2023/02/06 07:37:05;;;;;;;35.08;9.93;;;;;;;0.27;100.00;103913.78;5020231;28;20061;-76
2023/02/06 07:39:31;;;;;;;21.55;8.52;;;;;;;0.23;100.00;103907.03;5011080;28;20065;-76
2023/02/06 07:41:56;;;;;;;37.35;12.77;;;;;;;0.30;100.00;103905.25;5028175;28;20502;-76
2023/02/06 07:44:29;;;;;;;30.40;9.20;;;;;;;0.37;100.00;103901.78;4994005;28;20502;-77
2023/02/06 07:46:54;;;;;;;27.63;8.38;;;;;;;0.35;100.00;103900.97;5024110;28;20029;-76
2023/02/06 07:49:19;;;;;;;26.23;8.50;;;;;;;0.38;100.00;103900.94;5020436;28;20038;-76
2023/02/06 07:51:45;;;;;;;31.83;8.68;;;;;;;0.48;100.00;103896.59;5024427;28;20022;-76
2023/02/06 07:54:11;;;;;;;22.08;8.32;;;;;;;0.49;100.00;103901.69;5007600;28;20117;-76
2023/02/06 07:56:37;;;;;;;27.05;8.38;;;;;;;0.38;100.00;103904.34;5015053;28;20040;-76
2023/02/06 07:59:03;;;;;;;22.40;8.27;;;;;;;0.39;100.00;103905.19;4995663;28;20049;-76
2023/02/06 08:01:28;;;;;;;19.25;8.07;;;;;;;0.34;100.00;103907.78;5005483;28;20041;-76
2023/02/06 08:03:54;;;;;;;58.90;22.17;;;;;;;0.39;100.00;103913.66;4992219;28;20095;-76
2023/02/06 08:06:21;;;;;;;76.15;26.17;;;;;;;0.38;100.00;103908.59;5008510;28;20390;-76
2023/02/06 08:08:48;;;;;;;37.05;12.75;;;;;;;0.43;100.00;103908.56;5009983;28;20030;-76
2023/02/06 08:11:18;;;;;;;37.72;12.32;;;;;;;0.42;100.00;103909.44;5022693;28;20113;-77
2023/02/06 08:13:45;;;;;;;25.60;9.88;;;;;;;0.44;100.00;103907.69;5011139;28;20041;-77
2023/02/06 08:16:18;;;;;;;61.53;20.10;;;;;;;0.46;100.00;103911.94;5021375;28;20124;-76
2023/02/06 08:18:46;;;;;;;45.22;14.95;;;;;;;0.44;100.00;103912.81;5008068;28;20204;-76
2023/02/06 08:21:17;;;;;;;40.80;13.20;;;;;;;0.42;100.00;103917.94;5010672;28;20394;-77
2023/02/06 08:23:43;;;;;;;67.30;15.68;;;;;;;0.47;100.00;103911.06;5006882;28;20041;-77
2023/02/06 08:26:11;;;;;;;30.30;10.98;;;;;;;0.59;100.00;103915.22;4998910;28;20037;-76
2023/02/06 08:28:37;;;;;;;33.13;8.57;;;;;;;0.56;100.00;103912.69;5006368;28;20572;-76
2023/02/06 08:31:17;;;;;;;26.48;8.52;;;;;;;0.61;100.00;103903.28;5012211;28;20044;-77
2023/02/06 08:33:43;;;;;;;32.13;11.07;;;;;;;0.64;100.00;103912.59;5022753;28;20037;-76
2023/02/06 08:36:09;;;;;;;27.67;9.35;;;;;;;0.70;100.00;103910.00;5002628;28;20111;-76
2023/02/06 08:38:35;;;;;;;24.00;8.35;;;;;;;0.71;100.00;103912.53;5001733;28;20034;-77
2023/02/06 08:41:01;;;;;;;21.50;7.97;;;;;;;0.67;100.00;103907.47;5025582;28;20622;-77
2023/02/06 08:43:27;;;;;;;23.85;8.23;;;;;;;0.68;100.00;103915.13;4993810;28;20041;-76
2023/02/06 08:45:58;;;;;;;35.55;11.00;;;;;;;0.76;100.00;103912.50;5010691;28;20107;-77
2023/02/06 08:48:25;;;;;;;26.63;8.95;;;;;;;0.80;100.00;103909.03;5008271;28;20049;-77
2023/02/06 08:50:50;;;;;;;36.83;9.02;;;;;;;0.82;100.00;103907.31;4992786;28;20411;-77
2023/02/06 08:53:16;;;;;;;31.13;8.88;;;;;;;0.84;100.00;103900.47;5009419;28;20036;-77
2023/02/06 08:55:42;;;;;;;33.83;13.45;;;;;;;0.89;100.00;103897.88;5007730;28;20041;-77
2023/02/06 08:58:07;;;;;;;33.95;10.68;;;;;;;0.94;100.00;103894.41;4992852;28;20041;-77
2023/02/06 09:00:32;;;;;;;29.42;9.82;;;;;;;0.99;100.00;103890.94;5009437;28;20088;-77
2023/02/06 09:02:58;;;;;;;40.03;10.70;;;;;;;1.13;100.00;103891.59;5005918;28;20037;-77
2023/02/06 09:05:23;;;;;;;33.40;10.15;;;;;;;1.23;100.00;103887.25;5030866;28;20029;-77
2023/02/06 09:07:49;;;;;;;38.58;12.18;;;;;;;1.21;100.00;103889.81;5007383;28;20041;-76
2023/02/06 09:10:15;;;;;;;35.88;10.73;;;;;;;1.23;100.00;103895.75;5018611;28;20048;-76
2023/02/06 09:12:40;;;;;;;30.10;9.55;;;;;;;1.23;100.00;103905.97;5007394;28;20033;-77
2023/02/06 09:15:07;;;;;;;29.25;10.50;;;;;;;1.30;100.00;103899.94;5011027;28;20037;-76
2023/02/06 09:17:32;;;;;;;41.55;13.32;;;;;;;1.39;100.00;103898.09;4989642;28;20074;-77
2023/02/06 09:19:59;;;;;;;36.78;11.73;;;;;;;1.46;100.00;103899.72;5020363;28;20491;-77
2023/02/06 09:22:24;;;;;;;30.60;10.65;;;;;;;1.47;100.00;103906.50;5009837;28;20056;-79
2023/02/06 09:24:50;;;;;;;33.30;11.77;;;;;;;1.45;100.00;103892.91;5011770;28;20479;-77
2023/02/06 09:27:16;;;;;;;51.17;12.98;;;;;;;1.41;100.00;103896.38;5006490;28;20041;-78
2023/02/06 09:29:41;;;;;;;37.13;12.88;;;;;;;1.39;100.00;103893.81;5007249;28;20034;-77
2023/02/06 09:32:07;;;;;;;49.67;13.98;;;;;;;1.36;100.00;103889.63;5012117;28;20040;-77
2023/02/06 09:34:32;;;;;;;40.85;13.55;;;;;;;1.42;100.00;103885.28;5019369;28;20025;-78
2023/02/06 09:37:01;;;;;;;38.08;13.20;;;;;;;1.48;100.00;103892.88;4992648;28;20117;-77
2023/02/06 09:39:26;;;;;;;45.90;13.18;;;;;;;1.51;100.00;103893.69;5018611;28;20060;-79
2023/02/06 09:41:55;;;;;;;45.13;13.40;;;;;;;1.53;100.00;103897.06;5006070;28;20071;-77
2023/02/06 09:44:37;;;;;;;44.50;12.02;;;;;;;1.55;100.00;103902.16;5005785;28;20025;-78
2023/02/06 09:47:22;;;;;;;62.20;20.67;;;;;;;1.62;100.00;103900.34;5004187;28;20120;-77
2023/02/06 09:49:55;;;;;;;42.55;15.65;;;;;;;1.69;100.00;103905.34;5023582;28;20029;-79
2023/02/06 09:52:29;;;;;;;;;;;;;;;1.67;100.00;103908.81;5005905;28;20041;-77
2023/02/06 09:55:06;;;;;;;31.17;10.20;;;;;;;1.74;100.00;103897.63;4989237;28;19916;-78
2023/02/06 09:58:15;;;;;;;39.50;11.00;;;;;;;1.81;100.00;103906.91;5018830;28;20037;-78
2023/02/06 10:00:50;;;;;;;32.83;11.35;;;;;;;1.78;100.00;103913.78;5023946;28;20770;-78
2023/02/06 10:03:35;;;;;;;32.60;9.15;;;;;;;1.86;100.00;103912.78;5008437;28;20046;-78
2023/02/06 10:06:10;;;;;;;39.75;10.98;;;;;;;1.74;100.00;103908.69;5022366;28;20049;-78
2023/02/06 10:09:12;;;;;;;36.00;9.75;;;;;;;1.70;100.00;103911.31;5011770;28;20128;-78
2023/02/06 10:12:00;;;;;;;36.25;10.18;;;;;;;1.70;100.00;103906.22;5005556;28;20486;-78
2023/02/06 10:14:31;;;;;;;35.25;10.45;;;;;;;1.77;100.00;103901.84;5024032;28;20073;-78
2023/02/06 10:17:00;;;;;;;39.13;12.77;;;;;;;1.81;100.00;103904.34;5009150;28;20033;-78
2023/02/06 10:19:48;;;;;;;37.75;11.38;;;;;;;1.87;100.00;103905.97;5012074;28;20029;-78
2023/02/06 10:22:23;;;;;;;39.67;14.20;;;;;;;1.87;100.00;103911.06;4999311;28;20049;-79
2023/02/06 10:24:55;;;;;;;42.72;12.68;;;;;;;1.92;100.00;103914.38;5005241;28;20426;-78
2023/02/06 10:27:20;;;;;;;47.45;13.80;;;;;;;2.07;100.00;103910.75;5007114;28;20041;-78
2023/02/06 10:29:47;;;;;;;46.95;14.48;;;;;;;2.10;100.00;103911.53;5008191;28;20032;-78
2023/02/06 10:32:21;;;;;;;57.35;17.27;;;;;;;2.13;100.00;103911.50;5007095;28;21251;-78
2023/02/06 10:35:02;;;;;;;53.47;17.42;;;;;;;2.26;100.00;103908.72;5009492;28;20459;-78
2023/02/06 10:37:57;;;;;;;70.30;19.15;;;;;;;2.27;100.00;103905.31;4999489;28;20037;-78
2023/02/06 10:40:37;;;;;;;60.65;18.08;;;;;;;2.27;100.00;103910.44;5006332;28;20490;-80
2023/02/06 10:43:19;;;;;;;75.53;20.08;;;;;;;2.36;100.00;103904.31;5017544;28;20736;-78
2023/02/06 10:46:18;;;;;;;60.85;19.42;;;;;;;2.35;100.00;103913.69;5008334;28;20414;-78
2023/02/06 10:48:59;;;;;;;72.13;22.23;;;;;;;2.25;100.00;103904.50;5019733;28;20127;-78
2023/02/06 10:51:56;;;;;;;88.20;25.20;;;;;;;2.22;100.00;103909.66;4993126;28;20038;-78
2023/02/06 10:54:27;;;;;;;84.85;25.52;;;;;;;2.29;100.00;103901.00;5003503;28;20764;-78
2023/02/06 10:56:55;;;;;;;78.25;23.13;;;;;;;2.34;100.00;103888.97;5007054;28;20054;-79
2023/02/06 10:59:27;;;;;;;87.85;25.25;;;;;;;2.42;100.00;103884.53;5008375;28;20032;-79
2023/02/06 11:02:37;;;;;;;93.80;25.52;;;;;;;2.42;100.00;103870.91;5008368;28;20033;-79
2023/02/06 11:05:08;;;;;;;81.45;26.38;;;;;;;2.40;100.00;103873.50;4940404;29;20043;-78
2023/02/06 11:07:47;;;;;;;76.75;24.52;;;;;;;2.41;100.00;103875.19;4958744;28;20070;-78
2023/02/06 11:10:17;;;;;;;85.05;26.35;;;;;;;2.49;100.00;103869.94;4991490;28;20037;-78
2023/02/06 11:12:50;;;;;;;79.10;26.08;;;;;;;2.57;100.00;103883.44;5020553;28;20124;-78
2023/02/06 11:15:24;;;;;;;75.28;23.55;;;;;;;2.62;100.00;103875.63;5014776;28;20405;-78
2023/02/06 11:17:51;;;;;;;89.38;27.20;;;;;;;2.57;100.00;103869.78;5012174;28;20042;-78
2023/02/06 11:20:24;;;;;;;94.50;27.27;;;;;;;2.59;100.00;103863.75;5016517;28;20119;-79
2023/02/06 11:22:50;;;;;;;93.93;27.75;;;;;;;2.64;100.00;103861.13;5016630;28;20045;-79